createdAt,value
2018-07-13T00:00:28.839Z,19.08
2018-07-13T00:02:58.017Z,18.97
2018-07-13T00:05:27.249Z,18.75
2018-07-13T00:07:56.473Z,18.92
2018-07-13T00:10:25.689Z,18.97
2018-07-13T00:12:54.881Z,18.69
2018-07-13T00:15:24.107Z,18.91
2018-07-13T00:17:53.304Z,18.90
2018-07-13T00:20:22.510Z,19.09
2018-07-13T00:22:51.989Z,19.03
2018-07-13T00:25:22.174Z,19.23
2018-07-13T00:27:51.538Z,19.60
2018-07-13T00:30:20.737Z,19.36
2018-07-13T00:32:49.934Z,19.42
2018-07-13T00:35:19.140Z,19.28
2018-07-13T00:37:48.345Z,19.37
2018-07-13T00:40:18.565Z,19.22
2018-07-13T00:42:47.769Z,18.91
2018-07-13T00:45:16.983Z,19.12
2018-07-13T00:47:46.271Z,19.16
2018-07-13T00:50:15.537Z,19.29
2018-07-13T00:52:44.804Z,19.12
2018-07-13T00:55:14.038Z,19.15
2018-07-13T00:57:43.300Z,19.46
2018-07-13T01:00:12.564Z,19.47
2018-07-13T01:02:41.813Z,19.54
2018-07-13T01:05:11.041Z,19.46
2018-07-13T01:07:40.260Z,19.41
2018-07-13T01:10:09.620Z,19.32
2018-07-13T01:12:38.841Z,19.78
2018-07-13T01:15:08.164Z,19.56
2018-07-13T01:17:37.387Z,19.82
2018-07-13T01:20:06.636Z,19.56
2018-07-13T01:22:35.886Z,19.64
2018-07-13T01:25:05.214Z,19.85
2018-07-13T01:27:34.511Z,19.85
2018-07-13T01:30:03.835Z,19.76
2018-07-13T01:32:33.085Z,19.66
2018-07-13T01:35:02.315Z,19.95
2018-07-13T01:37:31.567Z,19.48
2018-07-13T01:40:00.804Z,19.46
2018-07-13T01:42:30.030Z,19.19
2018-07-13T01:44:59.298Z,19.06
2018-07-13T01:47:28.544Z,18.85
2018-07-13T01:49:57.776Z,18.65
2018-07-13T01:52:27.055Z,18.77
2018-07-13T01:54:56.400Z,18.85
2018-07-13T01:57:25.662Z,19.18
2018-07-13T01:59:54.915Z,19.00
2018-07-13T02:02:24.165Z,19.16
2018-07-13T02:04:53.385Z,19.20
2018-07-13T02:07:22.609Z,19.17
2018-07-13T02:09:53.406Z,18.93
2018-07-13T02:12:22.713Z,19.16
2018-07-13T02:14:52.416Z,19.15
2018-07-13T02:17:22.081Z,18.71
2018-07-13T02:19:51.274Z,18.48
2018-07-13T02:22:20.573Z,18.06
2018-07-13T02:24:49.840Z,18.22
2018-07-13T02:27:19.071Z,18.10
2018-07-13T02:29:48.275Z,18.23
2018-07-13T02:32:17.614Z,18.38
2018-07-13T02:34:46.890Z,18.47
2018-07-13T02:37:16.129Z,18.52
2018-07-13T02:39:45.344Z,18.26
2018-07-13T02:42:14.596Z,18.20
2018-07-13T02:44:43.820Z,18.29
2018-07-13T02:47:13.091Z,18.29
2018-07-13T02:49:42.294Z,18.18
2018-07-13T02:52:11.542Z,18.04
2018-07-13T02:54:40.940Z,18.40
2018-07-13T02:57:10.194Z,18.34
2018-07-13T02:59:39.437Z,18.11
2018-07-13T03:02:08.642Z,18.36
2018-07-13T03:04:37.869Z,18.34
2018-07-13T03:07:07.070Z,17.97
2018-07-13T03:09:36.322Z,17.66
2018-07-13T03:12:05.576Z,17.86
2018-07-13T03:14:34.849Z,17.91
2018-07-13T03:17:04.100Z,17.94
2018-07-13T03:19:34.233Z,18.01
2018-07-13T03:22:03.685Z,18.18
2018-07-13T03:24:33.394Z,18.00
2018-07-13T03:27:02.802Z,17.91
2018-07-13T03:29:32.217Z,17.96
2018-07-13T03:32:01.545Z,18.03
2018-07-13T03:34:30.969Z,18.14
2018-07-13T03:37:00.630Z,18.40
2018-07-13T03:39:29.825Z,18.34
2018-07-13T03:41:59.086Z,18.18
2018-07-13T03:44:28.295Z,18.35
2018-07-13T03:46:57.608Z,18.33
2018-07-13T03:49:26.824Z,18.23
2018-07-13T03:51:56.049Z,18.36
2018-07-13T03:54:25.349Z,18.46
2018-07-13T03:56:54.608Z,18.15
2018-07-13T03:59:23.869Z,18.17
2018-07-13T04:01:53.107Z,18.11
2018-07-13T04:04:22.322Z,18.20
2018-07-13T04:06:51.732Z,17.86
2018-07-13T04:09:20.920Z,17.80
2018-07-13T04:11:50.597Z,18.02
2018-07-13T04:14:19.784Z,17.59
2018-07-13T04:16:49.975Z,17.73
2018-07-13T04:19:19.190Z,18.13
2018-07-13T04:21:48.437Z,17.78
2018-07-13T04:24:17.684Z,17.69
2018-07-13T04:26:47.617Z,17.95
2018-07-13T04:29:16.889Z,18.05
2018-07-13T04:31:46.167Z,18.14
2018-07-13T04:34:15.369Z,18.33
2018-07-13T04:36:44.604Z,18.23
2018-07-13T04:39:14.148Z,18.20
2018-07-13T04:41:43.588Z,18.26
2018-07-13T04:44:12.777Z,18.54
2018-07-13T04:46:42.022Z,18.96
2018-07-13T04:49:11.239Z,18.80
2018-07-13T04:51:40.504Z,18.81
2018-07-13T04:54:09.808Z,19.02
2018-07-13T04:56:39.096Z,19.21
2018-07-13T04:59:08.340Z,19.43
2018-07-13T05:01:37.607Z,19.70
2018-07-13T05:04:06.807Z,19.74
2018-07-13T05:06:36.097Z,19.87
2018-07-13T05:09:07.025Z,19.88
2018-07-13T05:11:36.402Z,20.22
2018-07-13T05:14:05.786Z,20.25
2018-07-13T05:16:35.320Z,20.69
2018-07-13T05:19:04.574Z,20.58
2018-07-13T05:21:34.118Z,20.22
2018-07-13T05:24:03.364Z,20.57
2018-07-13T05:26:32.642Z,21.62
2018-07-13T05:29:01.875Z,23.47
2018-07-13T05:31:31.104Z,24.23
2018-07-13T05:34:00.298Z,24.40
2018-07-13T05:36:29.625Z,26.21
2018-07-13T05:38:58.831Z,27.62
2018-07-13T05:41:28.039Z,29.22
2018-07-13T05:43:57.289Z,29.40
2018-07-13T05:46:26.516Z,30.78
2018-07-13T05:48:55.760Z,30.26
2018-07-13T05:51:24.952Z,31.02
2018-07-13T05:53:54.161Z,32.07
2018-07-13T05:56:23.542Z,31.13
2018-07-13T05:58:52.748Z,30.92
2018-07-13T06:01:22.043Z,31.93
2018-07-13T06:03:51.267Z,32.34
2018-07-13T06:06:20.456Z,33.15
2018-07-13T06:08:49.674Z,32.23
2018-07-13T06:11:18.886Z,32.91
2018-07-13T06:13:48.088Z,31.14
2018-07-13T06:16:17.292Z,31.70
2018-07-13T06:18:46.497Z,31.72
2018-07-13T06:21:15.717Z,33.70
2018-07-13T06:23:44.951Z,32.60
2018-07-13T06:26:14.159Z,32.37
2018-07-13T06:28:43.328Z,33.20
2018-07-13T06:31:12.769Z,35.03
2018-07-13T06:33:41.937Z,32.77
2018-07-13T06:36:11.153Z,34.26
2018-07-13T06:38:40.409Z,33.35
2018-07-13T06:41:09.685Z,34.93
2018-07-13T06:43:38.935Z,33.56
2018-07-13T06:46:08.324Z,33.09
2018-07-13T06:48:37.531Z,33.55
2018-07-13T06:51:06.770Z,32.62
2018-07-13T06:53:36.022Z,32.56
2018-07-13T06:56:05.252Z,32.33
2018-07-13T06:58:45.519Z,34.01
2018-07-13T07:01:14.761Z,33.29
2018-07-13T07:04:46.408Z,33.31
2018-07-13T07:07:17.965Z,34.86
2018-07-13T07:10:03.605Z,34.15
2018-07-13T07:12:51.933Z,32.63
2018-07-13T07:15:21.466Z,34.93
2018-07-13T07:17:50.747Z,34.75
2018-07-13T07:20:19.930Z,33.41
2018-07-13T07:22:49.156Z,34.75
2018-07-13T07:25:18.696Z,33.89
2018-07-13T07:27:47.944Z,32.38
2018-07-13T07:30:17.149Z,33.72
2018-07-13T07:32:46.344Z,34.19
2018-07-13T07:35:15.583Z,33.83
2018-07-13T07:37:44.757Z,33.70
2018-07-13T07:40:14.040Z,31.92
2018-07-13T07:42:43.275Z,32.99
2018-07-13T07:45:12.506Z,34.78
2018-07-13T07:47:41.685Z,34.48
2018-07-13T07:50:10.907Z,35.33
2018-07-13T07:52:40.109Z,33.55
2018-07-13T07:55:09.373Z,34.18
2018-07-13T07:57:38.702Z,35.82
2018-07-13T08:00:07.913Z,36.04
2018-07-13T08:02:37.127Z,33.30
2018-07-13T08:05:06.459Z,34.60
2018-07-13T08:07:35.842Z,34.51
2018-07-13T08:10:05.081Z,32.57
2018-07-13T08:12:34.298Z,32.78
2018-07-13T08:15:03.508Z,34.92
2018-07-13T08:17:32.725Z,35.22
2018-07-13T08:20:02.065Z,34.19
2018-07-13T08:22:33.520Z,34.31
2018-07-13T08:25:04.981Z,36.65
2018-07-13T08:27:41.405Z,35.53
2018-07-13T08:30:16.496Z,35.01
2018-07-13T08:32:46.152Z,35.05
2018-07-13T08:35:15.570Z,35.16
2018-07-13T08:38:47.468Z,35.88
2018-07-13T08:41:16.732Z,34.74
2018-07-13T08:43:45.981Z,34.62
2018-07-13T08:46:15.228Z,35.78
2018-07-13T08:48:44.462Z,36.76
2018-07-13T08:51:13.799Z,36.52
2018-07-13T08:53:43.138Z,35.28
2018-07-13T08:56:12.409Z,36.13
2018-07-13T08:58:41.664Z,34.75
2018-07-13T09:01:10.921Z,36.02
2018-07-13T09:03:40.177Z,37.12
2018-07-13T09:06:09.450Z,35.68
2018-07-13T09:08:38.725Z,37.12
2018-07-13T09:11:08.217Z,36.27
2018-07-13T09:13:37.477Z,37.07
2018-07-13T09:16:06.699Z,36.32
2018-07-13T09:18:35.890Z,36.30
2018-07-13T09:21:05.112Z,36.30
2018-07-13T09:23:34.344Z,35.67
2018-07-13T09:26:03.623Z,35.35
2018-07-13T09:28:32.857Z,35.92
2018-07-13T09:31:02.148Z,35.97
2018-07-13T09:33:31.458Z,35.38
2018-07-13T09:36:00.798Z,35.18
2018-07-13T09:38:29.999Z,36.26
2018-07-13T09:40:59.240Z,36.17
2018-07-13T09:43:28.460Z,37.09
2018-07-13T09:45:57.721Z,36.24
2018-07-13T09:48:27.110Z,36.41
2018-07-13T09:50:56.342Z,36.46
2018-07-13T09:53:25.573Z,36.82
2018-07-13T09:55:54.811Z,37.08
2018-07-13T09:58:29.473Z,36.85
2018-07-13T10:01:03.918Z,35.99
2018-07-13T10:03:33.149Z,35.40
2018-07-13T10:06:02.572Z,36.27
2018-07-13T10:08:32.500Z,35.92
2018-07-13T10:11:01.727Z,36.86
2018-07-13T10:13:31.380Z,35.80
2018-07-13T10:16:00.556Z,36.13
2018-07-13T10:18:29.754Z,36.09
2018-07-13T10:20:59.611Z,36.51
2018-07-13T10:23:29.337Z,34.97
2018-07-13T10:26:02.913Z,36.33
2018-07-13T10:28:32.894Z,34.57
2018-07-13T10:31:02.285Z,35.35
2018-07-13T10:33:31.588Z,35.13
2018-07-13T10:36:01.895Z,35.04
2018-07-13T10:38:31.186Z,37.24
2018-07-13T10:41:00.503Z,34.73
2018-07-13T10:43:29.755Z,35.83
2018-07-13T10:45:58.956Z,36.89
2018-07-13T10:48:28.332Z,34.21
2018-07-13T10:50:57.549Z,35.28
2018-07-13T10:53:26.788Z,35.24
2018-07-13T10:55:56.154Z,36.22
2018-07-13T10:58:25.332Z,35.62
2018-07-13T11:00:54.569Z,35.07
2018-07-13T11:03:23.832Z,35.63
2018-07-13T11:05:53.013Z,34.89
2018-07-13T11:08:22.328Z,33.69
2018-07-13T11:10:51.530Z,34.25
2018-07-13T11:13:20.809Z,34.57
2018-07-13T11:15:50.327Z,34.58
2018-07-13T11:18:19.582Z,35.32
2018-07-13T11:20:48.818Z,34.18
2018-07-13T11:23:18.055Z,34.69
2018-07-13T11:25:47.286Z,31.98
2018-07-13T11:28:16.569Z,32.26
2018-07-13T11:30:45.766Z,31.47
2018-07-13T11:33:14.989Z,32.15
2018-07-13T11:35:44.247Z,31.57
2018-07-13T11:38:13.480Z,31.46
2018-07-13T11:40:42.678Z,31.73
2018-07-13T11:43:11.951Z,31.31
2018-07-13T11:45:41.194Z,30.83
2018-07-13T11:48:10.475Z,30.71
2018-07-13T11:50:39.723Z,30.68
2018-07-13T11:53:17.279Z,30.69
2018-07-13T11:55:46.486Z,31.20
2018-07-13T11:58:16.563Z,30.31
2018-07-13T12:00:46.016Z,29.64
2018-07-13T12:03:15.230Z,29.96
2018-07-13T12:05:44.504Z,30.71
2018-07-13T12:08:13.769Z,29.82
2018-07-13T12:10:43.126Z,30.62
2018-07-13T12:13:12.347Z,30.52
2018-07-13T12:15:41.824Z,30.54
2018-07-13T12:20:46.264Z,30.26
2018-07-13T12:23:15.529Z,30.79
2018-07-13T12:25:44.777Z,30.62
2018-07-13T12:28:13.987Z,30.59
2018-07-13T12:30:43.203Z,30.59
2018-07-13T12:33:12.412Z,29.93
2018-07-13T12:35:41.618Z,30.24
2018-07-13T12:38:10.987Z,30.63
2018-07-13T12:40:40.274Z,31.24
2018-07-13T12:43:09.574Z,29.89
2018-07-13T12:45:38.837Z,29.94
2018-07-13T12:48:08.034Z,29.49
2018-07-13T12:50:37.360Z,29.45
2018-07-13T12:53:06.888Z,29.74
2018-07-13T12:55:36.127Z,30.20
2018-07-13T12:58:05.389Z,29.75
2018-07-13T13:00:34.594Z,29.75
2018-07-13T13:03:03.812Z,29.93
2018-07-13T13:05:33.139Z,30.22
2018-07-13T13:08:02.330Z,29.40
2018-07-13T13:10:31.537Z,30.07
2018-07-13T13:13:00.763Z,30.51
2018-07-13T13:15:29.974Z,29.89
2018-07-13T13:17:59.225Z,29.34
2018-07-13T13:20:28.457Z,30.07
2018-07-13T13:22:57.664Z,29.44
2018-07-13T13:25:26.837Z,29.66
2018-07-13T13:27:56.036Z,30.35
2018-07-13T13:30:25.214Z,29.23
2018-07-13T13:32:54.398Z,28.98
2018-07-13T13:35:23.777Z,28.66
2018-07-13T13:37:52.969Z,29.17
2018-07-13T13:40:22.225Z,29.58
2018-07-13T13:42:51.421Z,29.45
2018-07-13T13:45:20.674Z,29.09
2018-07-13T13:47:50.090Z,28.63
2018-07-13T13:50:19.256Z,29.42
2018-07-13T13:52:48.449Z,28.92
2018-07-13T13:55:17.847Z,29.50
2018-07-13T13:57:47.099Z,28.91
2018-07-13T14:00:16.295Z,29.21
2018-07-13T14:02:45.553Z,29.06
2018-07-13T14:05:14.876Z,29.14
2018-07-13T14:07:44.039Z,29.40
2018-07-13T14:10:13.259Z,29.40
2018-07-13T14:12:42.473Z,28.79
2018-07-13T14:15:11.701Z,29.34
2018-07-13T14:17:40.975Z,29.68
2018-07-13T14:20:10.241Z,28.85
2018-07-13T14:22:39.456Z,28.91
2018-07-13T14:25:08.733Z,29.52
2018-07-13T14:27:37.964Z,29.67
2018-07-13T14:30:07.519Z,29.29
2018-07-13T14:32:37.111Z,29.87
2018-07-13T14:35:06.449Z,29.31
2018-07-13T14:37:35.706Z,29.30
2018-07-13T14:40:04.964Z,28.91
2018-07-13T14:42:35.313Z,28.80
2018-07-13T14:45:04.689Z,28.97
2018-07-13T14:47:33.929Z,29.55
2018-07-13T14:50:03.192Z,29.03
2018-07-13T14:52:32.437Z,28.84
2018-07-13T14:55:01.722Z,29.43
2018-07-13T14:57:30.934Z,28.82
2018-07-13T15:00:00.181Z,29.15
2018-07-13T15:02:29.394Z,29.39
2018-07-13T15:04:58.677Z,29.11
2018-07-13T15:07:27.857Z,28.27
2018-07-13T15:09:57.081Z,28.94
2018-07-13T15:12:27.351Z,28.93
2018-07-13T15:14:56.722Z,28.70
2018-07-13T15:17:25.982Z,27.99
2018-07-13T15:19:55.150Z,29.19
2018-07-13T15:22:24.418Z,28.69
2018-07-13T15:24:53.608Z,28.31
2018-07-13T15:27:22.799Z,28.67
2018-07-13T15:29:52.016Z,28.89
2018-07-13T15:32:21.306Z,28.80
2018-07-13T15:34:50.554Z,28.93
2018-07-13T15:37:19.840Z,28.44
2018-07-13T15:39:49.072Z,28.33
2018-07-13T15:42:18.360Z,28.24
2018-07-13T15:44:47.618Z,28.23
2018-07-13T15:47:16.855Z,28.33
2018-07-13T15:49:46.013Z,28.13
2018-07-13T15:52:15.268Z,28.16
2018-07-13T15:54:45.450Z,28.13
2018-07-13T15:57:14.637Z,27.98
2018-07-13T15:59:43.844Z,27.92
2018-07-13T16:02:13.070Z,28.40
2018-07-13T16:04:42.284Z,28.04
2018-07-13T16:07:12.497Z,27.73
2018-07-13T16:09:41.686Z,27.98
2018-07-13T16:12:10.902Z,27.86
2018-07-13T16:14:40.529Z,27.53
2018-07-13T16:17:09.765Z,27.85
2018-07-13T16:19:39.043Z,27.32
2018-07-13T16:22:08.404Z,27.64
2018-07-13T16:24:37.596Z,27.96
2018-07-13T16:27:06.799Z,28.37
2018-07-13T16:29:36.007Z,27.34
2018-07-13T16:32:05.288Z,27.61
2018-07-13T16:34:34.474Z,27.68
2018-07-13T16:37:03.705Z,27.81
2018-07-13T16:39:32.909Z,28.06
2018-07-13T16:42:02.725Z,27.58
2018-07-13T16:44:32.180Z,28.09
2018-07-13T16:47:01.567Z,28.09
2018-07-13T16:49:30.854Z,27.56
2018-07-13T16:52:00.231Z,27.92
2018-07-13T16:54:29.669Z,27.85
2018-07-13T16:56:59.246Z,27.45
2018-07-13T16:59:28.720Z,27.63
2018-07-13T17:01:58.067Z,27.10
2018-07-13T17:04:27.299Z,27.23
2018-07-13T17:06:56.501Z,27.58
2018-07-13T17:09:25.682Z,27.16
2018-07-13T17:11:54.882Z,26.84
2018-07-13T17:14:24.069Z,27.46
2018-07-13T17:16:53.277Z,27.37
2018-07-13T17:19:22.512Z,27.22
2018-07-13T17:21:51.683Z,26.99
2018-07-13T17:24:20.982Z,27.03
2018-07-13T17:26:50.253Z,27.19
2018-07-13T17:29:19.477Z,27.40
2018-07-13T17:31:48.681Z,27.68
2018-07-13T17:34:17.971Z,27.54
2018-07-13T17:36:47.272Z,27.36
2018-07-13T17:39:16.622Z,26.97
2018-07-13T17:41:45.810Z,27.23
2018-07-13T17:44:14.982Z,27.47
2018-07-13T17:46:44.174Z,27.15
2018-07-13T17:49:13.475Z,26.80
2018-07-13T17:51:42.702Z,26.96
2018-07-13T17:54:11.905Z,27.10
2018-07-13T17:56:41.106Z,26.04
2018-07-13T17:59:10.349Z,26.67
2018-07-13T18:01:39.628Z,27.42
2018-07-13T18:04:08.903Z,26.78
2018-07-13T18:06:38.135Z,26.49
2018-07-13T18:09:07.709Z,26.54
2018-07-13T18:11:37.059Z,26.27
2018-07-13T18:14:06.278Z,26.93
2018-07-13T18:16:35.461Z,26.86
2018-07-13T18:19:04.653Z,26.67
2018-07-13T18:21:33.862Z,26.96
2018-07-13T18:24:03.046Z,26.98
2018-07-13T18:26:32.221Z,26.58
2018-07-13T18:29:01.396Z,26.99
2018-07-13T18:31:30.610Z,26.49
2018-07-13T18:33:59.849Z,26.47
2018-07-13T18:36:29.037Z,26.54
2018-07-13T18:38:58.210Z,26.46
2018-07-13T18:41:27.405Z,25.70
2018-07-13T18:43:56.617Z,25.88
2018-07-13T18:46:26.242Z,25.67
2018-07-13T18:48:55.447Z,25.79
2018-07-13T18:51:24.640Z,26.12
2018-07-13T18:53:53.801Z,26.08
2018-07-13T18:56:22.998Z,26.02
2018-07-13T18:58:52.175Z,25.71
2018-07-13T19:01:21.349Z,25.42
2018-07-13T19:03:50.553Z,25.43
2018-07-13T19:06:19.837Z,25.24
2018-07-13T19:08:49.182Z,24.85
2018-07-13T19:11:18.367Z,24.90
2018-07-13T19:13:47.534Z,24.46
2018-07-13T19:16:16.709Z,24.55
2018-07-13T19:18:46.103Z,24.02
2018-07-13T19:21:15.297Z,23.67
2018-07-13T19:23:44.470Z,23.61
2018-07-13T19:26:13.645Z,23.21
2018-07-13T19:28:42.829Z,23.54
2018-07-13T19:31:12.070Z,23.42
2018-07-13T19:33:41.261Z,22.97
2018-07-13T19:36:10.561Z,23.17
2018-07-13T19:38:39.782Z,22.86
2018-07-13T19:41:08.958Z,22.60
2018-07-13T19:43:38.153Z,22.62
2018-07-13T19:46:07.377Z,22.47
2018-07-13T19:48:36.635Z,22.23
2018-07-13T19:51:05.853Z,22.12
2018-07-13T19:53:35.057Z,22.03
2018-07-13T19:56:04.233Z,21.97
2018-07-13T19:58:33.405Z,22.12
2018-07-13T20:01:02.613Z,22.14
2018-07-13T20:03:31.789Z,21.92
2018-07-13T20:06:02.029Z,21.20
2018-07-13T20:08:31.215Z,21.50
2018-07-13T20:11:00.403Z,21.47
2018-07-13T20:13:29.609Z,21.54
2018-07-13T20:15:58.811Z,21.28
2018-07-13T20:18:27.990Z,21.25
2018-07-13T20:20:57.245Z,21.36
2018-07-13T20:23:26.675Z,21.68
2018-07-13T20:25:55.856Z,21.40
2018-07-13T20:28:25.017Z,21.43
2018-07-13T20:30:54.205Z,21.01
2018-07-13T20:33:23.444Z,21.25
2018-07-13T20:35:52.597Z,21.18
2018-07-13T20:38:21.788Z,20.92
2018-07-13T20:40:50.976Z,21.27
2018-07-13T20:43:20.146Z,21.01
2018-07-13T20:45:49.326Z,21.16
2018-07-13T20:48:18.510Z,20.87
2018-07-13T20:50:47.705Z,20.67
2018-07-13T20:53:17.049Z,20.53
2018-07-13T20:55:46.248Z,20.64
2018-07-13T20:58:15.425Z,20.76
2018-07-13T21:00:44.610Z,20.41
2018-07-13T21:03:13.771Z,20.35
2018-07-13T21:05:43.202Z,20.48
2018-07-13T21:08:12.397Z,20.50
2018-07-13T21:10:41.572Z,20.41
2018-07-13T21:13:11.161Z,20.46
2018-07-13T21:15:40.448Z,20.31
2018-07-13T21:18:09.640Z,20.20
2018-07-13T21:20:38.886Z,20.18
2018-07-13T21:23:08.135Z,20.17
2018-07-13T21:25:37.304Z,19.86
2018-07-13T21:28:06.663Z,20.28
2018-07-13T21:30:35.892Z,20.09
2018-07-13T21:33:05.050Z,20.07
2018-07-13T21:35:34.222Z,20.24
2018-07-13T21:38:03.479Z,20.17
2018-07-13T21:40:32.869Z,20.03
2018-07-13T21:43:02.053Z,20.41
2018-07-13T21:45:31.237Z,19.90
2018-07-13T21:48:00.408Z,20.01
2018-07-13T21:50:29.605Z,20.02
2018-07-13T21:52:58.808Z,19.71
2018-07-13T21:55:28.015Z,19.79
2018-07-13T21:57:57.211Z,19.71
2018-07-13T22:00:26.427Z,19.74
2018-07-13T22:02:55.597Z,19.68
2018-07-13T22:05:24.765Z,19.50
2018-07-13T22:07:53.941Z,19.50
2018-07-13T22:10:23.257Z,20.01
2018-07-13T22:12:52.481Z,19.70
2018-07-13T22:15:21.652Z,19.65
2018-07-13T22:17:50.824Z,19.38
2018-07-13T22:20:20.061Z,19.60
2018-07-13T22:22:49.230Z,19.27
2018-07-13T22:25:18.401Z,19.21
2018-07-13T22:27:47.558Z,19.32
2018-07-13T22:30:16.732Z,19.51
2018-07-13T22:32:45.914Z,19.13
2018-07-13T22:35:15.092Z,18.98
2018-07-13T22:37:44.294Z,19.38
2018-07-13T22:40:13.517Z,19.21
2018-07-13T22:42:42.649Z,19.45
2018-07-13T22:45:11.805Z,19.31
2018-07-13T22:47:41.013Z,19.28
2018-07-13T22:50:10.200Z,19.08
2018-07-13T22:52:39.377Z,18.71
2018-07-13T22:55:08.579Z,18.86
2018-07-13T22:57:37.752Z,18.69
2018-07-13T23:00:07.498Z,18.60
2018-07-13T23:02:36.733Z,18.61
2018-07-13T23:05:06.015Z,18.57
2018-07-13T23:07:35.180Z,18.77
2018-07-13T23:10:04.401Z,18.92
2018-07-13T23:12:33.585Z,19.20
2018-07-13T23:15:02.769Z,18.84
2018-07-13T23:17:31.929Z,18.72
2018-07-13T23:20:01.134Z,18.82
2018-07-13T23:22:30.296Z,18.73
2018-07-13T23:24:59.476Z,18.57
2018-07-13T23:27:28.734Z,18.61
2018-07-13T23:29:57.952Z,18.71
2018-07-13T23:32:27.229Z,18.56
2018-07-13T23:34:56.392Z,18.55
2018-07-13T23:37:25.565Z,18.70
2018-07-13T23:39:54.731Z,18.53
2018-07-13T23:42:23.905Z,18.56
2018-07-13T23:44:53.085Z,18.65
2018-07-13T23:47:22.251Z,18.33
2018-07-13T23:49:51.400Z,18.23
2018-07-13T23:52:20.564Z,18.26
2018-07-13T23:54:49.732Z,18.58
2018-07-13T23:57:18.897Z,18.61
2018-07-13T23:59:48.083Z,18.30
